»·PEaware :: FDX3171 KGJT-KDEN

FDX3171 :: KGJT-KDEN

FLIGHT INFORMATION

Flight Status: Arrived
Operator:
Federal Express
More flights by this operator :: More flights under this callsign
Pilot: David C. (16084)
Aircraft: BOEING 767-300
(B763)
More flights by this aircraft type
Origin: KGJT Walker
United States
Destination: KDEN Denver Intl
United States
More flights between these airports :: More routes between these airports
Route: +JNC7 JNC HAQHY TELLR2
File this flight plan on PilotEdge
Remarks:
Altitude:
(Current/Filed)
27,000ft
Speed:
(Current/Filed)
487kts
Departed: 11-Nov-17 05:56 PM
Arrived: 11-Nov-17 06:37 PM
Distance/Time
Traveled:
183nm/0:41
Distance/Time
To Go:
Arrived

Flight Plot

Page will automatically refresh every two minutes.

Flight plan parsing failed; only flown route is shown


Map Options




Map Legend


Flown Route
Filed Route
Departure Airport
Arrival Airport
Navaid (VOR, NDB)
Fix

Horizontal Profiles

Position Reports

Time Latitude Longitude Heading Altitude Ground
Speed
11-Nov-17 17:31 39.122350 -108.526759 213 4868ft 0kts
11-Nov-17 17:32 39.122350 -108.526759 213 4868ft 0kts
11-Nov-17 17:33 39.122350 -108.526759 213 4868ft 0kts
11-Nov-17 17:34 39.122350 -108.526759 213 4868ft 0kts
11-Nov-17 17:35 39.122350 -108.526759 213 4868ft 0kts
11-Nov-17 17:36 39.122350 -108.526759 213 4868ft 0kts
11-Nov-17 17:37 39.122350 -108.526759 213 4868ft 0kts
11-Nov-17 17:38 39.122350 -108.526759 213 4868ft 0kts
11-Nov-17 17:39 39.122350 -108.526759 213 4868ft 0kts
11-Nov-17 17:40 39.122350 -108.526759 213 4868ft 0kts
11-Nov-17 17:41 39.122350 -108.526759 213 4868ft 0kts
11-Nov-17 17:42 39.122350 -108.526759 213 4868ft 0kts
11-Nov-17 17:43 39.122350 -108.526759 213 4868ft 0kts
11-Nov-17 17:44 39.122350 -108.526759 213 4868ft 0kts
11-Nov-17 17:45 39.122350 -108.526759 213 4868ft 0kts
11-Nov-17 17:46 39.122350 -108.526759 213 4868ft 0kts
11-Nov-17 17:47 39.122350 -108.526759 213 4868ft 0kts
11-Nov-17 17:48 39.122350 -108.526759 213 4868ft 0kts
11-Nov-17 17:49 39.122350 -108.526759 213 4868ft 0kts
11-Nov-17 17:50 39.122350 -108.526759 213 4868ft 0kts
11-Nov-17 17:51 39.122350 -108.526759 213 4868ft 0kts
11-Nov-17 17:52 39.122715 -108.526678 176 4868ft 2kts
11-Nov-17 17:53 39.122944 -108.526856 115 4868ft 0kts
11-Nov-17 17:54 39.122944 -108.526856 115 4868ft 0kts
11-Nov-17 17:55 39.122944 -108.526856 115 4868ft 0kts
11-Nov-17 17:56 39.122944 -108.526856 115 4868ft 0kts
11-Nov-17 17:57 39.122696 -108.524743 110 4868ft 17kts
11-Nov-17 17:58 39.119215 -108.518057 125 4868ft 37kts
11-Nov-17 17:59 39.118306 -108.516412 125 4868ft 0kts
11-Nov-17 18:00 39.118611 -108.514802 346 4868ft 17kts
11-Nov-17 18:01 39.124028 -108.524426 304 4869ft 142kts
11-Nov-17 18:02 39.141151 -108.585614 248 7806ft 210kts
11-Nov-17 18:03 39.114127 -108.652247 243 10983ft 231kts
11-Nov-17 18:04 39.076234 -108.745478 243 13667ft 258kts
11-Nov-17 18:05 39.019058 -108.786237 157 13990ft 278kts
11-Nov-17 18:06 38.984599 -108.706585 106 15772ft 340kts
11-Nov-17 18:07 38.980485 -108.582844 101 18854ft 363kts
11-Nov-17 18:08 38.945921 -108.457627 115 21713ft 384kts
11-Nov-17 18:09 38.903465 -108.331695 118 24208ft 407kts
11-Nov-17 18:10 38.857192 -108.196523 119 26447ft 429kts
11-Nov-17 18:11 38.826367 -108.045692 81 27190ft 448kts
11-Nov-17 18:12 38.851783 -107.884586 77 27272ft 494kts
11-Nov-17 18:13 38.879774 -107.699804 78 27267ft 555kts
11-Nov-17 18:14 38.906245 -107.506865 78 27239ft 548kts
11-Nov-17 18:15 38.931992 -107.315902 79 27247ft 545kts
11-Nov-17 18:16 38.961819 -107.125693 75 27254ft 542kts
11-Nov-17 18:17 38.993250 -106.937418 75 27253ft 539kts
11-Nov-17 18:18 39.022568 -106.749071 75 27256ft 536kts
11-Nov-17 18:19 39.051177 -106.561939 75 27294ft 534kts
11-Nov-17 18:20 39.088758 -106.378357 65 27300ft 528kts
11-Nov-17 18:21 39.106652 -106.207508 84 26611ft 516kts
11-Nov-17 18:22 39.150838 -106.040538 56 24587ft 488kts
11-Nov-17 18:23 39.216021 -105.890897 55 22382ft 478kts
11-Nov-17 18:24 39.279220 -105.746763 55 20467ft 450kts
11-Nov-17 18:25 39.339329 -105.609488 56 18725ft 428kts
11-Nov-17 18:26 39.390757 -105.487576 67 18218ft 358kts
11-Nov-17 18:27 39.400556 -105.358158 84 16870ft 363kts
11-Nov-17 18:28 39.406181 -105.233232 84 15409ft 342kts
11-Nov-17 18:29 39.411621 -105.112703 84 14112ft 337kts
11-Nov-17 18:30 39.416672 -104.996225 83 12883ft 290kts
11-Nov-17 18:31 39.422923 -104.899316 78 12573ft 268kts
11-Nov-17 18:32 39.431150 -104.806735 78 11819ft 254kts
11-Nov-17 18:33 39.448232 -104.720904 63 11014ft 242kts
11-Nov-17 18:34 39.499241 -104.677539 14 11004ft 230kts
11-Nov-17 18:35 39.561486 -104.664126 0 10416ft 226kts
11-Nov-17 18:36 39.624077 -104.663138 0 9288ft 224kts
11-Nov-17 18:37 39.684994 -104.662408 2 7666ft 202kts
11-Nov-17 18:38 39.732552 -104.661920 2 6971ft 152kts
11-Nov-17 18:39 39.775666 -104.661337 2 6494ft 154kts
11-Nov-17 18:40 39.817029 -104.660764 3 5688ft 144kts
11-Nov-17 18:41 39.846241 -104.660419 357 5442ft 41kts
11-Nov-17 18:42 39.849033 -104.661631 312 5442ft 0kts
11-Nov-17 18:43 39.846148 -104.662389 180 5442ft 29kts
11-Nov-17 18:44 39.835137 -104.662540 180 5442ft 40kts
11-Nov-17 18:45 39.829379 -104.666740 270 5442ft 33kts
11-Nov-17 18:46 39.830950 -104.674078 359 5442ft 0kts

Navigation Log

Ident Type
Flight plan parsing failed, navigation log unavailable